< < Back
Terminal Aerodrome Forecast


Current Version              Previous Versions:   1  2  3  4  5  6  7  8  9  

Terminal Aerodrome Forecast

874
FTUS44 KBMX 010500
TAFBHM
TAF
KBHM 010527Z 0106/0206 02006KT P6SM SCT050 BKN100
     FM011500 01006KT P6SM BKN150=



Latest METAR

321
SAUS70 KWBC 020000 RRT
MTRBHM
METAR KBHM 012353Z VRB04KT 10SM FEW050 BKN150 29/18 A3002 RMK AO2 SLP157
T02890178 10311 20278 55002


USA.gov is the U.S. government's official web portal to all federal, state and local government web resources and services.